createdAt,value
2023-02-07T00:01:27.646Z,104107.91
2023-02-07T00:03:56.591Z,104078.22
2023-02-07T00:06:26.710Z,104094.84
2023-02-07T00:08:54.706Z,104089.59
2023-02-07T00:11:23.191Z,104089.59
2023-02-07T00:13:53.229Z,104095.69
2023-02-07T00:16:20.924Z,104077.34
2023-02-07T00:18:47.685Z,104060.78
2023-02-07T00:21:17.981Z,104086.94
2023-02-07T00:23:46.442Z,104095.66
2023-02-07T00:26:14.933Z,104085.19
2023-02-07T00:28:41.766Z,104094.78
2023-02-07T00:31:17.339Z,104069.50
2023-02-07T00:33:45.804Z,104070.34
2023-02-07T00:36:16.613Z,104103.50
2023-02-07T00:38:43.960Z,104097.38
2023-02-07T00:41:15.221Z,104082.56
2023-02-07T00:43:42.601Z,104069.47
2023-02-07T00:46:09.364Z,104083.41
2023-02-07T00:48:36.613Z,104065.94
2023-02-07T00:51:03.415Z,104071.19
2023-02-07T00:53:30.424Z,104029.31
2023-02-07T00:55:57.539Z,104082.47
2023-02-07T00:58:24.826Z,104067.63
2023-02-07T01:00:52.061Z,104092.09
2023-02-07T01:03:19.121Z,104086.81
2023-02-07T01:05:45.927Z,104080.72
2023-02-07T01:08:13.082Z,104093.81
2023-02-07T01:10:41.199Z,104072.84
2023-02-07T01:13:07.884Z,104061.50
2023-02-07T01:15:39.237Z,104086.78
2023-02-07T01:18:07.229Z,104064.06
2023-02-07T01:20:34.361Z,104083.25
2023-02-07T01:23:01.019Z,104085.03
2023-02-07T01:25:27.875Z,104086.75
2023-02-07T01:27:54.740Z,104068.38
2023-02-07T01:30:21.551Z,104091.97
2023-02-07T01:32:48.816Z,104100.66
2023-02-07T01:35:17.037Z,104107.59
2023-02-07T01:37:44.376Z,104076.19
2023-02-07T01:40:12.940Z,104074.44
2023-02-07T01:42:39.923Z,104104.09
2023-02-07T01:45:30.137Z,104067.44
2023-02-07T01:48:00.975Z,104087.50
2023-02-07T01:50:28.215Z,104100.56
2023-02-07T01:52:56.752Z,104042.94
2023-02-07T01:55:28.002Z,104101.44
2023-02-07T01:57:55.232Z,104098.78
2023-02-07T02:00:22.202Z,104052.53
2023-02-07T02:02:49.173Z,104102.28
2023-02-07T02:05:17.232Z,104029.03
2023-02-07T02:07:43.964Z,104036.00
2023-02-07T02:10:22.901Z,104090.09
2023-02-07T02:13:13.672Z,104095.28
2023-02-07T02:15:47.638Z,104093.53
2023-02-07T02:18:41.547Z,104066.50
2023-02-07T02:21:26.086Z,104090.94
2023-02-07T02:24:08.107Z,104087.44
2023-02-07T02:26:49.939Z,104097.00
2023-02-07T02:29:44.325Z,104103.94
2023-02-07T02:32:35.657Z,104105.69
2023-02-07T02:35:13.109Z,104111.78
2023-02-07T02:37:53.742Z,104056.81
2023-02-07T02:40:20.295Z,104097.00
2023-02-07T02:43:01.118Z,104075.09
2023-02-07T02:45:37.282Z,104095.19
2023-02-07T02:48:06.296Z,104088.19
2023-02-07T02:50:34.722Z,104101.31
2023-02-07T02:53:01.979Z,104063.72
2023-02-07T02:55:52.473Z,104096.88
2023-02-07T02:58:26.362Z,104100.38
2023-02-07T03:01:04.904Z,104106.41
2023-02-07T03:03:54.455Z,104095.09
2023-02-07T03:06:30.063Z,104102.03
2023-02-07T03:09:30.746Z,104089.81
2023-02-07T03:12:20.573Z,104087.16
2023-02-07T03:15:05.482Z,104043.41
2023-02-07T03:17:43.167Z,104080.94
2023-02-07T03:20:19.657Z,104080.06
2023-02-07T03:22:48.453Z,104075.72
2023-02-07T03:25:17.157Z,104084.34
2023-02-07T03:27:46.738Z,104073.78
2023-02-07T03:30:16.636Z,104069.47
2023-02-07T03:32:48.805Z,104085.13
2023-02-07T03:35:47.048Z,104080.78
2023-02-07T03:38:14.644Z,104075.53
2023-02-07T03:40:48.188Z,104087.75
2023-02-07T03:43:25.185Z,104079.84
2023-02-07T03:45:51.826Z,104069.41
2023-02-07T03:48:18.921Z,104089.41
2023-02-07T03:50:47.726Z,104063.19
2023-02-07T03:53:14.440Z,104085.94
2023-02-07T03:55:41.247Z,104080.72
2023-02-07T03:58:08.703Z,104082.41
2023-02-07T04:00:35.914Z,104071.88
2023-02-07T04:03:03.862Z,103960.94
2023-02-07T04:05:30.927Z,104092.88
2023-02-07T04:07:57.662Z,104078.03
2023-02-07T04:10:24.343Z,104082.41
2023-02-07T04:12:51.333Z,104075.38
2023-02-07T04:15:18.184Z,104026.47
2023-02-07T04:17:44.872Z,104083.28
2023-02-07T04:20:12.578Z,104066.72
2023-02-07T04:22:39.270Z,104082.34
2023-02-07T04:25:06.438Z,104092.75
2023-02-07T04:27:33.343Z,104070.94
2023-02-07T04:29:59.960Z,104094.56
2023-02-07T04:32:26.805Z,104110.16
2023-02-07T04:34:53.645Z,104105.75
2023-02-07T04:37:20.383Z,104064.69
2023-02-07T04:39:47.145Z,104074.31
2023-02-07T04:42:14.099Z,104076.84
2023-02-07T04:44:40.907Z,104053.25
2023-02-07T04:47:07.557Z,104097.81
2023-02-07T04:49:34.803Z,104100.38
2023-02-07T04:52:01.772Z,104102.09
2023-02-07T04:54:28.405Z,104108.19
2023-02-07T04:56:55.279Z,104038.28
2023-02-07T04:59:21.998Z,104056.66
2023-02-07T05:01:48.826Z,104089.00
2023-02-07T05:04:15.610Z,104054.88
2023-02-07T05:06:42.949Z,104104.63
2023-02-07T05:09:09.564Z,104091.56
2023-02-07T05:11:36.350Z,104045.25
2023-02-07T05:14:03.042Z,104086.31
2023-02-07T05:16:29.703Z,104047.00
2023-02-07T05:18:56.485Z,104074.88
2023-02-07T05:21:23.218Z,104094.03
2023-02-07T05:23:50.002Z,104100.19
2023-02-07T05:26:17.497Z,104101.03
2023-02-07T05:28:44.706Z,104091.41
2023-02-07T05:31:11.601Z,104060.81
2023-02-07T05:33:38.522Z,104076.41
2023-02-07T05:36:05.681Z,104104.41
2023-02-07T05:38:32.321Z,104074.75
2023-02-07T05:40:59.890Z,104096.56
2023-02-07T05:43:26.805Z,104071.16
2023-02-07T05:45:53.484Z,104020.44
2023-02-07T05:48:20.343Z,104058.09
2023-02-07T05:50:47.706Z,104086.91
2023-02-07T05:53:14.335Z,104084.19
2023-02-07T05:55:41.390Z,104075.50
2023-02-07T05:58:08.359Z,104042.31
2023-02-07T06:00:35.173Z,104082.53
2023-02-07T06:03:01.987Z,104051.81
2023-02-07T06:05:31.933Z,104056.28
2023-02-07T06:07:59.633Z,104060.66
2023-02-07T06:10:26.407Z,104064.06
2023-02-07T06:12:53.484Z,104072.78
2023-02-07T06:15:20.260Z,104044.78
2023-02-07T06:17:47.887Z,104052.69
2023-02-07T06:20:15.006Z,104044.78
2023-02-07T06:22:42.033Z,104073.66
2023-02-07T06:25:12.022Z,104092.81
2023-02-07T06:27:40.270Z,104083.19
2023-02-07T06:30:09.410Z,104088.44
2023-02-07T06:32:36.357Z,104080.53
2023-02-07T06:35:03.532Z,104080.63
2023-02-07T06:37:30.197Z,104073.66
2023-02-07T06:39:57.042Z,104065.78
2023-02-07T06:42:23.762Z,104085.84
2023-02-07T06:44:50.427Z,103960.06
2023-02-07T06:47:17.206Z,104069.34
2023-02-07T06:49:43.816Z,104054.47
2023-02-07T06:52:10.508Z,104078.94
2023-02-07T06:54:37.499Z,104076.34
2023-02-07T06:57:04.393Z,104085.06
2023-02-07T06:59:31.204Z,104041.41
2023-02-07T07:02:00.483Z,104076.41
2023-02-07T07:04:27.500Z,104072.91
2023-02-07T07:06:54.201Z,104058.09
2023-02-07T07:09:21.263Z,104064.25
2023-02-07T07:11:48.045Z,104041.63
2023-02-07T07:14:14.778Z,104059.97
2023-02-07T07:16:41.618Z,104018.91
2023-02-07T07:19:08.398Z,104055.59
2023-02-07T07:21:35.522Z,104041.69
2023-02-07T07:24:02.417Z,104015.44
2023-02-07T07:26:39.547Z,104050.44
2023-02-07T07:29:13.767Z,104053.97
2023-02-07T07:31:40.604Z,104054.81
2023-02-07T07:34:07.394Z,104043.50
2023-02-07T07:36:34.261Z,104046.22
2023-02-07T07:39:01.220Z,104048.75
2023-02-07T07:41:27.930Z,104038.28
2023-02-07T07:43:55.436Z,104040.03
2023-02-07T07:46:22.398Z,104046.22
2023-02-07T07:48:49.238Z,104057.59
2023-02-07T07:51:16.106Z,104056.66
2023-02-07T07:53:43.062Z,104055.84
2023-02-07T07:56:10.020Z,104068.09
2023-02-07T07:58:37.100Z,104082.91
2023-02-07T08:01:03.991Z,104069.97
2023-02-07T08:03:30.933Z,104032.50
2023-02-07T08:05:57.758Z,104075.31
2023-02-07T08:08:24.572Z,104040.38
2023-02-07T08:10:51.397Z,104089.25
2023-02-07T08:13:20.117Z,104070.06
2023-02-07T08:15:47.531Z,104086.66
2023-02-07T08:18:14.398Z,104050.00
2023-02-07T08:20:41.539Z,104050.88
2023-02-07T08:23:08.661Z,104050.03
2023-02-07T08:25:35.546Z,104052.69
2023-02-07T08:28:04.492Z,104080.59
2023-02-07T08:30:32.017Z,103997.75
2023-02-07T08:32:58.797Z,104007.34
2023-02-07T08:35:26.859Z,104064.97
2023-02-07T08:37:55.923Z,104087.72
2023-02-07T08:40:22.968Z,104065.00
2023-02-07T08:42:49.892Z,104101.75
2023-02-07T08:45:17.811Z,104063.31
2023-02-07T08:47:45.889Z,104116.66
2023-02-07T08:50:14.337Z,104101.88
2023-02-07T08:52:41.294Z,104088.75
2023-02-07T08:55:09.004Z,104115.91
2023-02-07T08:57:36.557Z,104073.13
2023-02-07T09:00:06.309Z,104083.75
2023-02-07T09:02:34.418Z,104109.09
2023-02-07T09:05:01.433Z,104095.19
2023-02-07T09:07:28.133Z,104096.97
2023-02-07T09:09:54.822Z,104076.00
2023-02-07T09:12:21.475Z,104035.88
2023-02-07T09:14:48.434Z,104047.25
2023-02-07T09:17:15.102Z,104070.03
2023-02-07T09:19:41.989Z,104094.50
2023-02-07T09:22:08.756Z,104123.31
2023-02-07T09:24:35.809Z,104106.78
2023-02-07T09:27:02.856Z,104052.66
2023-02-07T09:29:29.605Z,104098.09
2023-02-07T09:31:56.737Z,104110.34
2023-02-07T09:34:24.264Z,104119.97
2023-02-07T09:36:51.136Z,104106.03
2023-02-07T09:39:18.096Z,104072.03
2023-02-07T09:42:22.345Z,104113.09
2023-02-07T09:45:02.243Z,104092.19
2023-02-07T09:47:32.440Z,104111.41
2023-02-07T09:50:05.995Z,104081.72
2023-02-07T09:52:47.253Z,104106.19
2023-02-07T09:55:42.490Z,104109.69
2023-02-07T09:58:35.354Z,104091.34
2023-02-07T10:01:10.972Z,104080.03
2023-02-07T10:03:47.355Z,104041.66
2023-02-07T10:06:23.754Z,104073.09
2023-02-07T10:08:55.737Z,104111.50
2023-02-07T10:12:00.003Z,104118.47
2023-02-07T10:14:51.420Z,104120.22
2023-02-07T10:17:39.203Z,104108.00
2023-02-07T10:20:32.205Z,104125.50
2023-02-07T10:23:11.102Z,104118.53
2023-02-07T10:26:00.106Z,104120.25
2023-02-07T10:28:42.045Z,104127.25
2023-02-07T10:31:19.602Z,104119.41
2023-02-07T10:33:56.842Z,104094.13
2023-02-07T10:36:25.285Z,104096.72
2023-02-07T10:39:09.544Z,104106.31
2023-02-07T10:41:44.821Z,104059.25
2023-02-07T10:44:14.619Z,104115.06
2023-02-07T10:46:44.535Z,104128.13
2023-02-07T10:49:25.739Z,104113.31
2023-02-07T10:51:57.592Z,104115.06
2023-02-07T10:54:24.945Z,104108.97
2023-02-07T10:57:01.715Z,104094.13
2023-02-07T10:59:31.781Z,104120.28
2023-02-07T11:01:58.932Z,104061.00
2023-02-07T11:04:37.366Z,104101.13
2023-02-07T11:07:10.184Z,104128.13
2023-02-07T11:09:37.938Z,104073.19
2023-02-07T11:12:33.963Z,104128.09
2023-02-07T11:15:15.988Z,104130.72
2023-02-07T11:17:58.815Z,104108.88
2023-02-07T11:20:25.778Z,104116.72
2023-02-07T11:22:54.282Z,104111.50
2023-02-07T11:25:32.008Z,104111.50
2023-02-07T11:27:59.674Z,104103.63
2023-02-07T11:30:29.527Z,104082.69
2023-02-07T11:33:00.830Z,104099.28
2023-02-07T11:35:28.341Z,104107.09
2023-02-07T11:38:02.494Z,104078.31
2023-02-07T11:40:39.157Z,104096.59
2023-02-07T11:43:19.800Z,104096.53
2023-02-07T11:45:48.699Z,104093.06
2023-02-07T11:48:37.864Z,104095.69
2023-02-07T11:51:07.599Z,104067.78
2023-02-07T11:53:46.937Z,104062.53
2023-02-07T11:56:31.346Z,104089.56
2023-02-07T11:58:59.785Z,104065.13
2023-02-07T12:01:32.706Z,104099.97
2023-02-07T12:04:11.364Z,104050.28
2023-02-07T12:06:41.681Z,104089.47
2023-02-07T12:09:21.889Z,104036.31
2023-02-07T12:11:50.933Z,104063.28
2023-02-07T12:14:28.429Z,104090.28
2023-02-07T12:16:59.089Z,104079.81
2023-02-07T12:19:29.272Z,104081.50
2023-02-07T12:22:08.322Z,104066.69
2023-02-07T12:24:53.886Z,104078.00
2023-02-07T12:27:26.431Z,104081.47
2023-02-07T12:30:14.146Z,104056.16
2023-02-07T12:33:10.547Z,103989.06
2023-02-07T12:35:56.818Z,104070.88
2023-02-07T12:38:28.188Z,104076.94
2023-02-07T12:41:03.146Z,104070.81
2023-02-07T12:43:38.937Z,104069.06
2023-02-07T12:46:50.170Z,104065.56
2023-02-07T12:49:35.659Z,104065.50
2023-02-07T12:52:24.890Z,104060.25
2023-02-07T12:55:01.991Z,104036.78
2023-02-07T12:57:51.063Z,104059.34
2023-02-07T13:00:24.639Z,104060.19
2023-02-07T13:02:58.592Z,104059.28
2023-02-07T13:05:59.217Z,104052.28
2023-02-07T13:08:32.167Z,104050.50
2023-02-07T13:11:39.800Z,104046.16
2023-02-07T13:14:30.974Z,104043.53
2023-02-07T13:17:06.618Z,104055.72
2023-02-07T13:19:55.824Z,104046.97
2023-02-07T13:22:35.536Z,104054.84
2023-02-07T13:25:03.530Z,104029.59
2023-02-07T13:27:30.806Z,104031.28
2023-02-07T13:29:58.863Z,104035.66
2023-02-07T13:32:27.678Z,104053.91
2023-02-07T13:35:13.720Z,103972.97
2023-02-07T13:37:53.162Z,104051.25
2023-02-07T13:40:28.729Z,104057.31
2023-02-07T13:43:03.526Z,104006.84
2023-02-07T13:45:36.404Z,104052.94
2023-02-07T13:48:19.011Z,104047.69
2023-02-07T13:50:59.666Z,104023.28
2023-02-07T13:53:34.214Z,104045.88
2023-02-07T14:14:39.319Z,104019.75
2023-02-07T14:17:12.075Z,104014.53
2023-02-07T14:19:43.150Z,104031.00
2023-02-07T14:22:23.390Z,104014.44
2023-02-07T14:24:59.405Z,104029.25
2023-02-07T14:27:31.080Z,104030.13
2023-02-07T14:30:00.684Z,104029.25
2023-02-07T14:32:41.228Z,104022.25
2023-02-07T14:35:17.110Z,104017.84
2023-02-07T14:37:49.367Z,104019.59
2023-02-07T14:40:31.984Z,104017.81
2023-02-07T14:43:02.940Z,103989.13
2023-02-07T14:45:33.568Z,104020.41
2023-02-07T14:48:00.313Z,104021.31
2023-02-07T14:50:30.801Z,104009.19
2023-02-07T14:53:00.637Z,104014.34
2023-02-07T14:55:34.457Z,103991.75
2023-02-07T14:58:06.911Z,104019.63
2023-02-07T15:00:46.001Z,104010.06
2023-02-07T15:03:21.521Z,103939.66
2023-02-07T15:05:53.982Z,104021.44
2023-02-07T15:08:30.351Z,104025.88
2023-02-07T15:11:01.625Z,104018.88
2023-02-07T15:13:34.978Z,104015.38
2023-02-07T15:16:09.225Z,104013.63
2023-02-07T15:18:42.523Z,103969.31
2023-02-07T15:21:28.554Z,104011.94
2023-02-07T15:24:00.454Z,103931.00
2023-02-07T15:26:27.208Z,103999.78
2023-02-07T15:29:03.791Z,103997.16
2023-02-07T15:31:31.341Z,103985.03
2023-02-07T15:34:05.357Z,103973.69
2023-02-07T15:36:34.143Z,104006.78
2023-02-07T15:39:06.387Z,104000.72
2023-02-07T15:41:34.339Z,104005.97
2023-02-07T15:44:04.084Z,104002.47
2023-02-07T15:46:52.948Z,103993.00
2023-02-07T15:49:40.708Z,104000.84
2023-02-07T15:52:25.769Z,104008.69
2023-02-07T15:54:54.548Z,104012.22
2023-02-07T15:57:31.191Z,104013.09
2023-02-07T16:00:04.393Z,104010.53
2023-02-07T16:02:34.800Z,103967.94
2023-02-07T16:05:09.444Z,104014.97
2023-02-07T16:07:37.535Z,103991.50
2023-02-07T16:10:20.478Z,104027.25
2023-02-07T16:12:55.560Z,104023.78
2023-02-07T16:15:28.597Z,104003.81
2023-02-07T16:17:56.063Z,104024.75
2023-02-07T16:20:23.160Z,104019.53
2023-02-07T16:22:51.297Z,104022.22
2023-02-07T16:25:29.607Z,104000.44
2023-02-07T16:27:56.572Z,104001.34
2023-02-07T16:30:34.064Z,103981.34
2023-02-07T16:33:08.044Z,104024.94
2023-02-07T16:35:35.030Z,103997.09
2023-02-07T16:38:01.744Z,104010.19
2023-02-07T16:40:28.606Z,103980.59
2023-02-07T16:42:56.910Z,104004.09
2023-02-07T16:45:26.695Z,104022.44
2023-02-07T16:47:53.850Z,103992.84
2023-02-07T16:50:24.031Z,104020.75
2023-02-07T16:52:52.735Z,104019.88
2023-02-07T16:55:20.960Z,104002.50
2023-02-07T16:57:49.381Z,104027.75
2023-02-07T17:00:22.413Z,104024.31
2023-02-07T17:02:53.808Z,104026.03
2023-02-07T17:05:23.815Z,104031.31
2023-02-07T17:07:51.307Z,103999.06
2023-02-07T17:10:27.582Z,104027.81
2023-02-07T17:12:54.387Z,104023.47
2023-02-07T17:15:21.660Z,104001.72
2023-02-07T17:17:48.892Z,104020.88
2023-02-07T17:20:26.188Z,104038.31
2023-02-07T17:22:53.591Z,104036.56
2023-02-07T17:25:22.507Z,104040.06
2023-02-07T17:27:49.228Z,104004.31
2023-02-07T17:30:22.121Z,104015.63
2023-02-07T17:32:48.861Z,104030.47
2023-02-07T17:35:15.830Z,104032.22
2023-02-07T17:37:43.437Z,104015.66
2023-02-07T17:40:34.909Z,104037.44
2023-02-07T17:43:02.276Z,104034.81
2023-02-07T17:45:33.550Z,104032.19
2023-02-07T17:48:00.316Z,104031.34
2023-02-07T17:50:41.141Z,104000.81
2023-02-07T17:53:10.033Z,104035.69
2023-02-07T17:55:38.003Z,104036.56
2023-02-07T17:58:05.635Z,103970.28
2023-02-07T18:00:41.846Z,103957.19
2023-02-07T18:03:09.763Z,104003.41
2023-02-07T18:05:37.442Z,104021.72
2023-02-07T18:08:04.598Z,104028.66
2023-02-07T18:10:35.540Z,104005.13
2023-02-07T18:13:02.429Z,104019.06
2023-02-07T18:15:30.240Z,104008.59
2023-02-07T18:17:57.346Z,104026.91
2023-02-07T18:20:29.570Z,104009.44
2023-02-07T18:22:57.767Z,104032.13
2023-02-07T18:25:26.791Z,104022.50
2023-02-07T18:27:54.391Z,104012.91
2023-02-07T18:30:24.448Z,104034.72
2023-02-07T18:32:51.847Z,104046.00
2023-02-07T18:35:19.261Z,104000.66
2023-02-07T18:37:46.103Z,104032.94
2023-02-07T18:40:15.995Z,104012.00
2023-02-07T18:42:43.510Z,104038.13
2023-02-07T18:45:10.446Z,104046.81
2023-02-07T18:47:38.039Z,103993.63
2023-02-07T18:50:05.502Z,104045.09
2023-02-07T18:52:32.317Z,104025.88
2023-02-07T18:54:59.710Z,104004.91
2023-02-07T18:57:26.403Z,103961.28
2023-02-07T18:59:53.057Z,104040.66
2023-02-07T19:02:20.139Z,104031.03
2023-02-07T19:04:47.709Z,104024.91
2023-02-07T19:07:14.977Z,104043.25
2023-02-07T19:09:42.346Z,104016.19
2023-02-07T19:12:10.619Z,104038.91
2023-02-07T19:14:37.775Z,104010.94
2023-02-07T19:17:04.973Z,104033.66
2023-02-07T19:19:32.862Z,104036.25
2023-02-07T19:21:59.971Z,104015.28
2023-02-07T19:24:27.600Z,104057.13
2023-02-07T19:26:58.758Z,104035.31
2023-02-07T19:29:29.509Z,104050.13
2023-02-07T19:31:58.586Z,104034.44
2023-02-07T19:34:25.363Z,104030.06
2023-02-07T19:36:52.343Z,104018.66
2023-02-07T19:39:19.485Z,104048.34
2023-02-07T19:41:46.409Z,104051.81
2023-02-07T19:44:13.773Z,104049.22
2023-02-07T19:46:41.279Z,104031.72
2023-02-07T19:49:08.508Z,103997.66
2023-02-07T19:51:35.410Z,104062.22
2023-02-07T19:54:02.523Z,104050.91
2023-02-07T19:56:33.322Z,104043.91
2023-02-07T19:59:05.013Z,104054.38
2023-02-07T20:01:34.435Z,104060.44
2023-02-07T20:04:01.505Z,104054.34
2023-02-07T20:06:33.048Z,104018.53
2023-02-07T20:09:02.369Z,104025.50
2023-02-07T20:11:29.778Z,104004.53
2023-02-07T20:14:03.272Z,104051.69
2023-02-07T20:16:33.515Z,104061.22
2023-02-07T20:19:00.626Z,104052.53
2023-02-07T20:21:29.044Z,104025.44
2023-02-07T20:23:57.084Z,104021.91
2023-02-07T20:26:30.405Z,104064.69
2023-02-07T20:29:00.480Z,104065.53
2023-02-07T20:31:27.957Z,104054.19
2023-02-07T20:33:55.320Z,103979.16
2023-02-07T20:36:22.284Z,104039.34
2023-02-07T20:38:49.409Z,104003.53
2023-02-07T20:41:32.026Z,104048.91
2023-02-07T20:44:05.238Z,104055.00
2023-02-07T20:46:34.996Z,104040.16
2023-02-07T20:49:08.098Z,104055.84
2023-02-07T20:51:35.438Z,103999.06
2023-02-07T20:54:03.908Z,104047.91
2023-02-07T20:56:32.721Z,104035.72
2023-02-07T20:59:00.520Z,104046.19
2023-02-07T21:01:28.861Z,104055.72
2023-02-07T21:03:57.601Z,103968.44
2023-02-07T21:06:25.013Z,104058.38
2023-02-07T21:09:00.293Z,104054.00
2023-02-07T21:11:36.734Z,104017.31
2023-02-07T21:14:13.084Z,104036.50
2023-02-07T21:16:40.115Z,104048.72
2023-02-07T21:19:06.909Z,104035.63
2023-02-07T21:21:33.796Z,104015.50
2023-02-07T21:24:00.898Z,104054.78
2023-02-07T21:26:28.422Z,104030.31
2023-02-07T21:29:02.944Z,104044.25
2023-02-07T21:31:31.043Z,104047.75
2023-02-07T21:33:58.266Z,104051.19
2023-02-07T21:36:28.217Z,104018.00
2023-02-07T21:38:56.285Z,104054.66
2023-02-07T21:41:25.339Z,104044.16
2023-02-07T21:43:54.488Z,104052.03
2023-02-07T21:46:24.020Z,104019.72
2023-02-07T21:48:53.415Z,104035.44
2023-02-07T21:51:22.907Z,104041.56
2023-02-07T21:53:51.339Z,104045.03
2023-02-07T21:56:21.659Z,104041.53
2023-02-07T21:58:56.719Z,104038.00
2023-02-07T22:01:24.881Z,104044.97
2023-02-07T22:03:54.287Z,104025.78
2023-02-07T22:06:22.150Z,103991.72
2023-02-07T22:08:56.262Z,104003.06
2023-02-07T22:11:24.843Z,104017.97
2023-02-07T22:13:53.210Z,104025.78
2023-02-07T22:16:23.066Z,104018.84
2023-02-07T22:18:52.954Z,104016.19
2023-02-07T22:21:22.148Z,104018.75
2023-02-07T22:23:48.995Z,104014.38
2023-02-07T22:26:17.914Z,104024.81
2023-02-07T22:28:45.293Z,104004.81
2023-02-07T22:31:15.292Z,104017.00
2023-02-07T22:33:42.538Z,103993.41
2023-02-07T22:36:18.023Z,104008.34
2023-02-07T22:38:45.719Z,103977.78
2023-02-07T22:41:13.032Z,103992.56
2023-02-07T22:43:40.437Z,103908.78
2023-02-07T22:46:09.832Z,104003.94
2023-02-07T22:48:36.656Z,103933.13
2023-02-07T22:51:15.329Z,104018.69
2023-02-07T22:53:42.072Z,103996.03
2023-02-07T22:56:09.318Z,104008.25
2023-02-07T22:58:36.521Z,103997.75
2023-02-07T23:01:03.824Z,103977.66
2023-02-07T23:03:30.841Z,103969.78
2023-02-07T23:05:57.712Z,104006.44
2023-02-07T23:08:24.568Z,103987.19
2023-02-07T23:10:51.296Z,104008.97
2023-02-07T23:13:18.176Z,104015.94
2023-02-07T23:15:51.036Z,104017.72
2023-02-07T23:18:17.728Z,103929.50
2023-02-07T23:20:45.079Z,103996.66
2023-02-07T23:23:13.132Z,104025.47
2023-02-07T23:25:46.517Z,103978.34
2023-02-07T23:28:14.046Z,103959.97
2023-02-07T23:30:41.596Z,104017.63
2023-02-07T23:33:09.899Z,104018.44
2023-02-07T23:35:36.773Z,103996.63
2023-02-07T23:38:04.197Z,104021.09
2023-02-07T23:40:31.312Z,103997.47
2023-02-07T23:42:57.987Z,104025.41
2023-02-07T23:45:25.190Z,104007.91
2023-02-07T23:47:52.077Z,104001.75
2023-02-07T23:50:18.985Z,104012.25
2023-02-07T23:52:46.054Z,104022.69
2023-02-07T23:55:13.312Z,104017.44
2023-02-07T23:57:40.090Z,104026.16
